createdAt,value
2022-09-13T00:01:36.237Z,12.36
2022-09-13T00:04:39.017Z,12.23
2022-09-13T00:07:41.730Z,12.26
2022-09-13T00:10:45.592Z,12.28
2022-09-13T00:13:49.708Z,12.30
2022-09-13T00:16:52.418Z,12.22
2022-09-13T00:19:55.176Z,12.25
2022-09-13T00:22:57.922Z,12.27
2022-09-13T00:26:06.020Z,12.22
2022-09-13T00:29:10.130Z,12.29
2022-09-13T00:32:13.242Z,12.37
2022-09-13T00:35:16.134Z,12.32
2022-09-13T00:38:18.960Z,12.29
2022-09-13T00:41:22.765Z,12.16
2022-09-13T00:44:55.216Z,12.19
2022-09-13T00:48:01.882Z,12.21
2022-09-13T00:51:07.507Z,12.19
2022-09-13T00:54:11.099Z,12.19
2022-09-13T00:57:15.850Z,12.19
2022-09-13T01:00:20.812Z,12.28
2022-09-13T01:03:26.847Z,12.27
2022-09-13T01:06:33.211Z,12.14
2022-09-13T01:09:40.258Z,12.14
2022-09-13T01:12:50.100Z,12.19
2022-09-13T01:15:54.341Z,12.12
2022-09-13T01:18:57.074Z,12.09
2022-09-13T01:22:48.503Z,12.09
2022-09-13T01:26:27.419Z,12.15
2022-09-13T01:29:56.958Z,12.08
2022-09-13T01:33:17.902Z,12.12
2022-09-13T01:36:37.059Z,12.13
2022-09-13T01:39:58.139Z,11.93
2022-09-13T01:43:20.744Z,11.99
2022-09-13T01:46:28.154Z,11.93
2022-09-13T01:49:39.140Z,11.90
2022-09-13T01:52:50.488Z,11.85
2022-09-13T01:56:00.242Z,11.87
2022-09-13T01:59:08.707Z,11.83
2022-09-13T02:02:17.729Z,11.84
2022-09-13T02:05:28.845Z,11.88
2022-09-13T02:08:39.653Z,11.97
2022-09-13T02:11:46.409Z,12.03
2022-09-13T02:14:55.485Z,12.05
2022-09-13T02:18:05.942Z,12.09
2022-09-13T02:21:14.063Z,12.12
2022-09-13T02:24:20.448Z,12.18
2022-09-13T02:27:28.117Z,12.21
2022-09-13T02:30:34.918Z,12.22
2022-09-13T02:33:41.986Z,12.20
2022-09-13T02:36:49.716Z,12.17
2022-09-13T02:39:58.324Z,12.19
2022-09-13T02:43:05.748Z,12.17
2022-09-13T02:46:21.330Z,12.22
2022-09-13T02:49:54.019Z,12.16
2022-09-13T02:53:05.375Z,12.22
2022-09-13T02:56:19.851Z,12.18
2022-09-13T02:59:24.834Z,12.27
2022-09-13T03:02:32.843Z,12.28
2022-09-13T03:05:35.672Z,12.30
2022-09-13T03:08:40.300Z,12.26
2022-09-13T03:11:57.559Z,12.22
2022-09-13T03:15:12.587Z,12.21
2022-09-13T03:18:29.710Z,12.18
2022-09-13T03:21:50.227Z,12.19
2022-09-13T03:25:04.436Z,12.18
2022-09-13T03:28:21.501Z,12.17
2022-09-13T03:31:33.910Z,12.21
2022-09-13T03:34:45.116Z,12.08
2022-09-13T03:37:55.561Z,12.14
2022-09-13T03:41:06.490Z,12.11
2022-09-13T03:44:14.157Z,12.13
2022-09-13T03:47:19.549Z,12.12
2022-09-13T03:50:24.156Z,12.24
2022-09-13T03:53:30.239Z,12.15
2022-09-13T03:56:34.412Z,12.19
2022-09-13T03:59:38.852Z,12.20
2022-09-13T04:02:42.130Z,12.27
2022-09-13T04:05:44.890Z,12.31
2022-09-13T04:08:47.895Z,12.29
2022-09-13T04:11:52.096Z,12.30
2022-09-13T04:14:54.952Z,12.17
2022-09-13T04:17:57.693Z,12.23
2022-09-13T04:21:02.379Z,12.21
2022-09-13T04:24:05.471Z,12.17
2022-09-13T04:27:09.969Z,12.18
2022-09-13T04:30:13.781Z,12.22
2022-09-13T04:33:17.359Z,12.26
2022-09-13T04:36:21.319Z,12.20
2022-09-13T04:39:24.353Z,12.16
2022-09-13T04:42:28.461Z,12.00
2022-09-13T04:45:31.413Z,12.02
2022-09-13T04:48:34.286Z,11.66
2022-09-13T04:51:37.171Z,11.83
2022-09-13T04:54:39.959Z,11.85
2022-09-13T04:57:44.122Z,11.90
2022-09-13T05:00:47.843Z,11.96
2022-09-13T05:03:52.678Z,11.91
2022-09-13T05:06:55.491Z,12.00
2022-09-13T05:09:58.292Z,12.04
2022-09-13T05:13:02.365Z,12.12
2022-09-13T05:16:07.246Z,12.13
2022-09-13T05:19:11.298Z,12.19
2022-09-13T05:22:14.064Z,12.25
2022-09-13T05:25:17.070Z,12.22
2022-09-13T05:28:21.280Z,12.05
2022-09-13T05:31:26.545Z,12.03
2022-09-13T05:34:29.676Z,12.10
2022-09-13T05:37:32.499Z,11.96
2022-09-13T05:40:35.385Z,12.01
2022-09-13T05:43:39.528Z,12.02
2022-09-13T05:46:43.226Z,12.08
2022-09-13T05:50:08.947Z,12.16
2022-09-13T05:53:09.150Z,12.22
2022-09-13T05:56:16.801Z,12.34
2022-09-13T05:59:21.096Z,12.45
2022-09-13T06:02:23.891Z,12.56
2022-09-13T06:05:29.929Z,12.68
2022-09-13T06:08:35.665Z,12.81
2022-09-13T06:11:38.737Z,12.92
2022-09-13T06:14:43.079Z,13.02
2022-09-13T06:17:47.079Z,13.18
2022-09-13T06:20:50.277Z,13.18
2022-09-13T06:23:54.730Z,13.33
2022-09-13T06:26:57.518Z,13.58
2022-09-13T06:30:01.776Z,13.57
2022-09-13T06:33:04.853Z,13.72
2022-09-13T06:36:09.663Z,13.86
2022-09-13T06:39:12.479Z,14.00
2022-09-13T06:42:15.232Z,14.27
2022-09-13T06:45:19.357Z,14.53
2022-09-13T06:48:22.194Z,14.80
2022-09-13T06:51:26.406Z,14.96
2022-09-13T06:54:29.302Z,15.11
2022-09-13T06:57:32.170Z,15.23
2022-09-13T07:00:36.319Z,15.23
2022-09-13T07:03:40.308Z,15.25
2022-09-13T07:06:44.968Z,15.47
2022-09-13T07:09:47.740Z,15.77
2022-09-13T07:12:50.820Z,15.98
2022-09-13T07:15:55.055Z,16.17
2022-09-13T07:18:59.852Z,16.51
2022-09-13T07:22:02.644Z,16.55
2022-09-13T07:25:06.325Z,16.88
2022-09-13T07:28:09.145Z,17.03
2022-09-13T07:31:14.928Z,17.15
2022-09-13T07:34:20.483Z,17.17
2022-09-13T07:37:23.258Z,17.18
2022-09-13T07:40:26.163Z,17.16
2022-09-13T07:43:29.693Z,17.10
2022-09-13T07:47:01.970Z,17.13
2022-09-13T07:50:04.943Z,17.10
2022-09-13T07:53:07.668Z,17.15
2022-09-13T07:56:12.520Z,17.20
2022-09-13T07:59:17.011Z,17.26
2022-09-13T08:02:21.200Z,17.28
2022-09-13T08:05:24.054Z,17.14
2022-09-13T08:08:27.136Z,17.08
2022-09-13T08:11:32.052Z,17.01
2022-09-13T08:14:35.030Z,16.94
2022-09-13T08:17:39.167Z,16.83
2022-09-13T08:20:42.125Z,16.69
2022-09-13T08:23:45.232Z,16.63
2022-09-13T08:26:49.078Z,16.52
2022-09-13T08:29:51.943Z,16.45
2022-09-13T08:32:56.201Z,16.51
2022-09-13T08:35:59.159Z,16.38
2022-09-13T08:39:02.306Z,16.36
2022-09-13T08:42:16.126Z,16.44
2022-09-13T08:45:19.318Z,16.46
2022-09-13T08:48:29.628Z,16.46
2022-09-13T08:51:36.117Z,16.59
2022-09-13T08:54:38.985Z,16.72
2022-09-13T08:57:46.979Z,16.75
2022-09-13T09:00:55.803Z,16.80
2022-09-13T09:04:05.742Z,16.87
2022-09-13T09:07:14.210Z,16.89
2022-09-13T09:10:20.093Z,17.01
2022-09-13T09:13:30.311Z,17.27
2022-09-13T09:16:38.252Z,17.47
2022-09-13T09:19:47.881Z,17.50
2022-09-13T09:22:52.456Z,17.45
2022-09-13T09:25:59.132Z,17.36
2022-09-13T09:29:06.567Z,17.33
2022-09-13T09:32:20.722Z,17.43
2022-09-13T09:35:35.382Z,17.41
2022-09-13T09:38:43.939Z,17.46
2022-09-13T09:41:47.010Z,17.56
2022-09-13T09:44:53.279Z,17.60
2022-09-13T09:47:57.807Z,17.86
2022-09-13T09:51:06.287Z,18.14
2022-09-13T09:54:39.147Z,18.20
2022-09-13T09:57:53.207Z,18.13
2022-09-13T10:00:58.987Z,18.10
2022-09-13T10:04:09.463Z,18.13
2022-09-13T10:07:25.407Z,18.09
2022-09-13T10:10:36.762Z,18.18
2022-09-13T10:13:39.733Z,18.34
2022-09-13T10:16:42.968Z,18.31
2022-09-13T10:19:58.783Z,18.43
2022-09-13T10:23:19.331Z,18.43
2022-09-13T10:26:24.356Z,18.47
2022-09-13T10:29:28.910Z,18.85
2022-09-13T10:32:32.169Z,18.95
2022-09-13T10:35:34.982Z,19.02
2022-09-13T10:38:45.981Z,19.12
2022-09-13T10:41:55.887Z,19.38
2022-09-13T10:45:01.781Z,19.49
2022-09-13T10:48:11.969Z,19.48
2022-09-13T10:51:29.742Z,19.44
2022-09-13T10:54:33.851Z,19.48
2022-09-13T10:57:38.423Z,19.52
2022-09-13T11:01:07.839Z,19.53
2022-09-13T11:04:46.192Z,19.59
2022-09-13T11:08:12.872Z,19.46
2022-09-13T11:11:25.219Z,19.43
2022-09-13T11:14:46.097Z,19.44
2022-09-13T11:18:21.095Z,19.47
2022-09-13T11:21:36.540Z,19.66
2022-09-13T11:24:57.817Z,19.68
2022-09-13T11:28:10.179Z,19.84
2022-09-13T11:31:25.893Z,19.73
2022-09-13T11:34:43.339Z,19.74
2022-09-13T11:37:55.386Z,19.73
2022-09-13T11:41:05.311Z,19.75
2022-09-13T11:44:36.738Z,19.74
2022-09-13T11:47:58.604Z,19.76
2022-09-13T11:51:09.961Z,19.75
2022-09-13T11:54:25.179Z,19.59
2022-09-13T11:57:33.862Z,19.53
2022-09-13T12:00:42.934Z,19.48
2022-09-13T12:03:52.339Z,19.47
2022-09-13T12:06:59.844Z,19.52
2022-09-13T12:10:09.335Z,19.61
2022-09-13T12:13:17.745Z,19.75
2022-09-13T12:16:27.638Z,19.75
2022-09-13T12:19:41.962Z,19.96
2022-09-13T12:22:46.659Z,20.07
2022-09-13T12:25:56.073Z,20.04
2022-09-13T12:29:04.391Z,20.03
2022-09-13T12:32:11.352Z,20.09
2022-09-13T12:35:23.028Z,20.04
2022-09-13T12:38:50.686Z,20.04
2022-09-13T12:42:18.684Z,20.06
2022-09-13T12:45:54.787Z,20.13
2022-09-13T12:49:27.420Z,20.16
2022-09-13T12:52:37.781Z,20.26
2022-09-13T12:56:09.525Z,20.33
2022-09-13T12:59:26.648Z,20.49
2022-09-13T13:02:35.275Z,20.51
2022-09-13T13:05:42.599Z,20.60
2022-09-13T13:08:52.706Z,20.79
2022-09-13T13:11:55.930Z,20.83
2022-09-13T13:14:59.815Z,20.92
2022-09-13T13:18:23.570Z,20.92
2022-09-13T13:21:31.635Z,20.99
2022-09-13T13:24:47.357Z,21.01
2022-09-13T13:27:55.092Z,20.99
2022-09-13T13:30:59.108Z,20.86
2022-09-13T13:34:04.062Z,20.75
2022-09-13T13:37:29.550Z,20.66
2022-09-13T13:40:32.328Z,20.61
2022-09-13T13:43:36.444Z,20.60
2022-09-13T13:46:40.166Z,20.62
2022-09-13T13:49:46.645Z,20.58
2022-09-13T13:52:56.762Z,20.52
2022-09-13T13:56:16.668Z,20.60
2022-09-13T13:59:26.174Z,20.55
2022-09-13T14:02:37.806Z,20.54
2022-09-13T14:05:47.868Z,20.61
2022-09-13T14:09:09.596Z,20.80
2022-09-13T14:12:22.575Z,20.93
2022-09-13T14:15:36.879Z,21.12
2022-09-13T14:19:06.601Z,21.15
2022-09-13T14:22:16.242Z,21.18
2022-09-13T14:25:26.637Z,21.32
2022-09-13T14:28:29.824Z,21.31
2022-09-13T14:31:32.721Z,21.42
2022-09-13T14:34:38.679Z,21.41
2022-09-13T14:37:41.662Z,21.46
2022-09-13T14:40:49.309Z,21.52
2022-09-13T14:43:52.101Z,21.60
2022-09-13T14:47:02.771Z,21.66
2022-09-13T14:50:09.295Z,21.60
2022-09-13T14:53:17.610Z,21.53
2022-09-13T14:56:31.224Z,21.50
2022-09-13T14:59:37.711Z,21.50
2022-09-13T15:02:41.650Z,21.52
2022-09-13T15:05:53.146Z,21.58
2022-09-13T15:08:59.569Z,21.61
2022-09-13T15:12:03.941Z,21.71
2022-09-13T15:15:41.225Z,21.69
2022-09-13T15:18:43.987Z,21.69
2022-09-13T15:21:46.820Z,21.62
2022-09-13T15:24:52.220Z,21.52
2022-09-13T15:27:57.837Z,21.43
2022-09-13T15:31:03.672Z,21.36
2022-09-13T15:34:13.787Z,21.37
2022-09-13T15:37:16.903Z,21.43
2022-09-13T15:40:22.092Z,21.45
2022-09-13T15:43:26.430Z,21.37
2022-09-13T15:46:29.951Z,21.34
2022-09-13T15:49:33.793Z,21.29
2022-09-13T15:52:36.629Z,21.31
2022-09-13T15:55:40.787Z,21.35
2022-09-13T15:58:45.064Z,21.38
2022-09-13T16:01:49.456Z,21.44
2022-09-13T16:04:53.126Z,21.44
2022-09-13T16:07:58.883Z,21.40
2022-09-13T16:11:01.741Z,21.33
2022-09-13T16:14:06.879Z,21.36
2022-09-13T16:17:14.084Z,21.31
2022-09-13T16:20:17.375Z,21.25
2022-09-13T16:23:20.252Z,21.19
2022-09-13T16:26:23.509Z,21.16
2022-09-13T16:29:27.837Z,21.13
2022-09-13T16:32:30.629Z,21.07
2022-09-13T16:35:33.729Z,21.01
2022-09-13T16:38:36.455Z,20.96
2022-09-13T16:41:40.055Z,20.89
2022-09-13T16:44:44.801Z,20.77
2022-09-13T16:47:48.015Z,20.71
2022-09-13T16:50:51.112Z,20.66
2022-09-13T16:53:55.107Z,20.61
2022-09-13T16:56:58.926Z,20.53
2022-09-13T17:00:07.312Z,20.45
2022-09-13T17:03:10.147Z,20.37
2022-09-13T17:06:14.729Z,20.33
2022-09-13T17:09:17.981Z,20.29
2022-09-13T17:12:20.926Z,20.27
2022-09-13T17:15:25.155Z,20.12
2022-09-13T17:18:28.427Z,19.93
2022-09-13T17:21:33.755Z,19.88
2022-09-13T17:24:37.234Z,19.76
2022-09-13T17:27:40.130Z,19.67
2022-09-13T17:30:46.215Z,19.63
2022-09-13T17:33:50.050Z,19.56
2022-09-13T17:36:52.873Z,19.53
2022-09-13T17:39:56.007Z,19.30
2022-09-13T17:42:58.929Z,19.36
2022-09-13T17:46:06.555Z,19.26
2022-09-13T17:49:09.659Z,19.27
2022-09-13T17:52:12.679Z,19.32
2022-09-13T17:55:16.152Z,19.24
2022-09-13T17:58:19.037Z,19.14
2022-09-13T18:01:23.330Z,19.02
2022-09-13T18:04:26.474Z,18.87
2022-09-13T18:07:29.420Z,18.71
2022-09-13T18:10:57.963Z,18.65
2022-09-13T18:13:55.371Z,18.66
2022-09-13T18:17:00.154Z,18.66
2022-09-13T18:20:03.959Z,18.39
2022-09-13T18:23:08.097Z,18.18
2022-09-13T18:26:14.201Z,18.18
2022-09-13T18:29:18.770Z,18.12
2022-09-13T18:32:22.934Z,18.19
2022-09-13T18:35:26.175Z,18.17
2022-09-13T18:38:30.151Z,18.17
2022-09-13T18:41:35.845Z,18.03
2022-09-13T18:44:38.756Z,18.08
2022-09-13T18:47:42.936Z,17.84
2022-09-13T18:50:45.751Z,17.46
2022-09-13T18:53:49.341Z,17.52
2022-09-13T18:56:54.610Z,17.53
2022-09-13T18:59:59.501Z,17.48
2022-09-13T19:03:12.215Z,17.52
2022-09-13T19:06:18.567Z,17.44
2022-09-13T19:09:22.867Z,17.25
2022-09-13T19:12:25.773Z,17.28
2022-09-13T19:15:28.651Z,17.27
2022-09-13T19:18:33.094Z,17.22
2022-09-13T19:21:36.296Z,17.14
2022-09-13T19:24:39.069Z,17.10
2022-09-13T19:27:42.153Z,16.99
2022-09-13T19:30:49.532Z,16.94
2022-09-13T19:33:55.343Z,16.90
2022-09-13T19:36:58.557Z,17.00
2022-09-13T19:40:01.541Z,17.06
2022-09-13T19:43:05.209Z,16.98
2022-09-13T19:46:10.174Z,16.64
2022-09-13T19:49:16.020Z,16.50
2022-09-13T19:52:18.995Z,16.59
2022-09-13T19:55:22.000Z,16.56
2022-09-13T19:58:24.788Z,16.62
2022-09-13T20:01:29.182Z,16.53
2022-09-13T20:04:33.550Z,16.45
2022-09-13T20:07:36.419Z,16.51
2022-09-13T20:10:39.801Z,16.51
2022-09-13T20:13:43.296Z,16.50
2022-09-13T20:16:46.741Z,16.56
2022-09-13T20:19:50.945Z,16.36
2022-09-13T20:22:53.990Z,16.17
2022-09-13T20:25:56.795Z,16.23
2022-09-13T20:29:02.615Z,16.34
2022-09-13T20:32:05.396Z,15.98
2022-09-13T20:35:10.971Z,16.16
2022-09-13T20:38:13.755Z,15.94
2022-09-13T20:41:18.532Z,16.05
2022-09-13T20:44:21.442Z,16.19
2022-09-13T20:47:24.362Z,16.09
2022-09-13T20:50:29.021Z,16.09
2022-09-13T20:53:33.205Z,16.25
2022-09-13T20:56:36.268Z,16.19
2022-09-13T20:59:40.085Z,16.17
2022-09-13T21:02:43.140Z,16.01
2022-09-13T21:05:47.432Z,15.94
2022-09-13T21:08:50.794Z,16.03
2022-09-13T21:11:53.567Z,15.94
2022-09-13T21:14:56.715Z,15.82
2022-09-13T21:17:59.865Z,15.93
2022-09-13T21:21:05.215Z,15.94
2022-09-13T21:24:09.854Z,15.82
2022-09-13T21:27:12.793Z,15.84
2022-09-13T21:30:15.847Z,15.92
2022-09-13T21:33:18.640Z,15.86
2022-09-13T21:36:22.857Z,15.95
2022-09-13T21:39:25.593Z,16.00
2022-09-13T21:42:28.709Z,15.78
2022-09-13T21:45:31.508Z,15.78
2022-09-13T21:48:36.179Z,15.76
2022-09-13T21:51:42.155Z,15.80
2022-09-13T21:54:44.958Z,15.81
2022-09-13T21:57:47.782Z,15.90
2022-09-13T22:00:51.047Z,15.87
2022-09-13T22:03:54.458Z,15.86
2022-09-13T22:06:58.618Z,15.94
2022-09-13T22:10:01.483Z,15.87
2022-09-13T22:13:04.305Z,15.97
2022-09-13T22:16:09.139Z,15.94
2022-09-13T22:19:14.418Z,15.93
2022-09-13T22:22:18.542Z,15.78
2022-09-13T22:25:22.115Z,15.71
2022-09-13T22:28:24.876Z,15.66
2022-09-13T22:31:29.256Z,15.67
2022-09-13T22:34:34.900Z,15.74
2022-09-13T22:37:38.983Z,15.61
2022-09-13T22:40:41.741Z,15.46
2022-09-13T22:43:45.005Z,15.45
2022-09-13T22:46:48.142Z,15.55
2022-09-13T22:49:50.906Z,15.53
2022-09-13T22:52:55.187Z,15.67
2022-09-13T22:56:04.022Z,15.68
2022-09-13T22:59:08.700Z,15.36
2022-09-13T23:02:11.539Z,15.09
2022-09-13T23:05:14.768Z,15.09
2022-09-13T23:08:18.966Z,15.14
2022-09-13T23:11:23.742Z,15.06
2022-09-13T23:14:26.481Z,14.84
2022-09-13T23:17:29.275Z,15.09
2022-09-13T23:20:32.302Z,15.18
2022-09-13T23:23:37.010Z,15.15
2022-09-13T23:26:39.964Z,15.07
2022-09-13T23:29:42.732Z,15.02
2022-09-13T23:32:48.346Z,14.97
2022-09-13T23:35:51.513Z,15.00
2022-09-13T23:38:57.798Z,15.17
2022-09-13T23:42:01.389Z,15.25
2022-09-13T23:45:04.311Z,15.22
2022-09-13T23:48:07.095Z,15.29
2022-09-13T23:51:12.084Z,15.39
2022-09-13T23:54:16.835Z,15.07
2022-09-13T23:57:20.283Z,14.91
